首页
METAR-TAF:

METAR-TAF

机场 :

St. Petersburg-Clearwater International Airport

聖彼德斯堡-克利爾沃特, 佛罗里达州, 美国

纬度: 27-54-44N, 经度: 082-41-08W, 海拔: 3米

当前天气观测

该预报发布于1小时和0分钟前的19:53 UTC
风速7节,风向东转东北
温度 31°C
湿度 43%
气压 1015 hPa
能見度: 16.1公里
少量云层高于6000英尺

METAR: KPIE 231953Z AUTO 06007KT 10SM FEW060 31/17 A2997 RMK AO2 SLP149 T03110172

时间: 16:53 (20:53 UTC)

预报

该预报发布于3小时和24分钟前的17:29 UTC
预报有效从23日的 18点(UTC)到 24日的 18点(UTC)
风速9节,风向北转东北
能見度: 10公里
散云层高于5000英尺
从 24日的 0200点(UTC)
风速7节,风向
能見度: 10公里
天空无云
从 24日的 1500点(UTC)
风速6节,风向东北
能見度: 10公里
少量云层高于4000英尺

TAF: KPIE 231729Z 2318/2418 03009KT P6SM SCT050 FM240200 08007KT P6SM SKC FM241500 04006KT P6SM FEW040

超过4000个机场的气象观测和天气预报(METAR&TAF报告)。

可查询的气象台以黄色和红色小点在地图上表示。

将鼠标移到小点上方,可查看气象台名称。

然后点击查看天气观测和预报。

如需切换地图:点击带黑十字的绿色按钮放大地图;点击带横线的绿色按钮缩小地图;或者点击绿色箭头查看邻近地区的地图。


METAR-TAF: